Aérodrome :
LOGIN :

S'inscrire | Disclaimer

   EN    FR    IT 

 










Légende :    VFR   VFR Marginal   IFR   IFR Intensif   IFR Très Intensif
Visi : 
Plafond : 
>= 8 km
>= 3000ft
5 à 8 km
1000 à 3000 ft
1500m à 5 km
500 à 1000 ft
800 à 1500m
200 à 500 ft
< 800m
< 200 ft
Symboles :   Orages  Brouillard  Fortes neiges  Fortes précipitations  Vent > 20 kt
SIGMETs :   Divers  Orages  Givrage  Turbulence  Onde Orograph.  Cendres Volcan.







- Altitude de l'aérodrome : 412 ft
- Code IATA : ORE
- Voir les cartes d'approche


LFOJ - Orleans

DERNIER METAR :
  • 210930Z AUTO 29014KT 9999 BKN022 15/11 Q1015 NOSIG

METARs EXPIRÉS :
  • 210900Z AUTO 28014KT 9999 SCT015 BKN021 BKN026 15/12 Q1014 NOSIG
  • 210830Z AUTO 28011KT 9999 FEW014 BKN036 OVC042 14/13 Q1013 NOSIG
  • 210800Z AUTO 28008KT 9999 BKN030/// OVC035/// ///TCU 14/13 Q1013 BECMG 28015G25KT RA BKN035
  • 210730Z AUTO 29014KT 4300 RA BR BKN015/// BKN026/// BKN035/// ///TCU 13/12 Q1012 BECMG 28015G25KT 9999 RA BKN035
  • 210700Z AUTO 30016G26KT 270V330 5000 -RA BR BKN008/// BKN012/// OVC019/// ///TCU 14/13 Q1011 BECMG RA BKN035

TAF TAF LFOJ
Valide du 20 à 15h jusqu'au 21 à 15h UTC


201400Z 2015/2115 21014KT CAVOK
PROB40
TEMPO 2020/2104 22015G25KT
BECMG 2104/2106 28015G25KT BKN012
TEMPO 2106/2109 29020G35KT 4000 RA
BECMG 2109/2111 BKN030
Pas de NOTAMs connus pour ce terrain.



MET'MAP, la Météo Aéronautique d'un coup d'oeil ! - Copyright ORBIFLY Décembre 2007 - Disclaimer

ORBIFLY MET'MAP TEAM :

Programmation & Développement : Alexandra Zaïnal
Conception & Développement : Baudouin d'Aumeries
Co-Programmation & Développement : Marc-Olivier Méhu
Soutien technique & logistique : Manuel Goepfert

Contact : metmap@orbifly.com




SOURCES & CREDITS :

   NOAA